Hingham, United Kingdom
Current Conditions -  °F | °C
As of 8:50 AM on Friday 31 Oct 2014 (Local Time) from EGSH Reporting Station
Clear Clear  
Wind Chill: 59°   Ceiling: Unl
Heat Index: 59°   Visibility: 4mi
Dew Point: 57°   Wind: 7mph
Humidity: 94%   Direction: 190°S
Pressure: 30.06"   Gusts: NA
Location:  52.58°N, 0.98°E
Report Text: EGSH 310850Z 19006KT 140V230 7000 NSC 15/14 Q1018 NOSIG
Loading
Personal Weather Stations






























Interactive Weather Map
Tropical Storm Tracking
New forecast layout! Learn more

10-Day Weather Forecast

Advertisements
Track Severe Weather on mobile